sensor_id;sensor_type;location;lat;lon;timestamp;pressure;altitude;pressure_sealevel;temperature;humidity
36726;BME280;44936;52.086;5.150;2023-04-23T00:01:55;101018.28;;;8.77;100.00
36726;BME280;44936;52.086;5.150;2023-04-23T00:04:24;101022.66;;;8.76;100.00
36726;BME280;44936;52.086;5.150;2023-04-23T00:06:50;101007.75;;;8.72;100.00
36726;BME280;44936;52.086;5.150;2023-04-23T00:09:17;101005.97;;;8.68;100.00
36726;BME280;44936;52.086;5.150;2023-04-23T00:11:42;101005.03;;;8.65;100.00
36726;BME280;44936;52.086;5.150;2023-04-23T00:14:08;100998.06;;;8.65;100.00
36726;BME280;44936;52.086;5.150;2023-04-23T00:16:34;100996.31;;;8.64;100.00
36726;BME280;44936;52.086;5.150;2023-04-23T00:19:00;101001.59;;;8.66;100.00
36726;BME280;44936;52.086;5.150;2023-04-23T00:21:26;100999.75;;;8.60;100.00
36726;BME280;44936;52.086;5.150;2023-04-23T00:23:51;100998.88;;;8.60;100.00
36726;BME280;44936;52.086;5.150;2023-04-23T00:26:17;100998.03;;;8.62;100.00
36726;BME280;44936;52.086;5.150;2023-04-23T00:28:42;100998.88;;;8.58;100.00
36726;BME280;44936;52.086;5.150;2023-04-23T00:31:08;100991.06;;;8.61;100.00
36726;BME280;44936;52.086;5.150;2023-04-23T00:33:33;100999.75;;;8.60;100.00
36726;BME280;44936;52.086;5.150;2023-04-23T00:35:58;100990.97;;;8.55;100.00
36726;BME280;44936;52.086;5.150;2023-04-23T00:38:24;100992.72;;;8.56;100.00
36726;BME280;44936;52.086;5.150;2023-04-23T00:40:50;101002.38;;;8.59;100.00
36726;BME280;44936;52.086;5.150;2023-04-23T00:43:16;100995.41;;;8.59;100.00
36726;BME280;44936;52.086;5.150;2023-04-23T00:45:43;100982.22;;;8.53;100.00
36726;BME280;44936;52.086;5.150;2023-04-23T00:48:10;100984.84;;;8.55;100.00
36726;BME280;44936;52.086;5.150;2023-04-23T00:50:35;100981.34;;;8.52;100.00
36726;BME280;44936;52.086;5.150;2023-04-23T00:53:01;100979.59;;;8.50;100.00
36726;BME280;44936;52.086;5.150;2023-04-23T00:55:26;100973.31;;;8.39;100.00
36726;BME280;44936;52.086;5.150;2023-04-23T00:57:52;100968.09;;;8.39;100.00
36726;BME280;44936;52.086;5.150;2023-04-23T01:00:18;100969.81;;;8.37;100.00
36726;BME280;44936;52.086;5.150;2023-04-23T01:02:46;100962.81;;;8.36;100.00
36726;BME280;44936;52.086;5.150;2023-04-23T01:05:15;100971.69;;;8.47;100.00
36726;BME280;44936;52.086;5.150;2023-04-23T01:07:43;100974.38;;;8.53;100.00
36726;BME280;44936;52.086;5.150;2023-04-23T01:10:09;100971.69;;;8.47;100.00
36726;BME280;44936;52.086;5.150;2023-04-23T01:12:35;100975.28;;;8.55;100.00
36726;BME280;44936;52.086;5.150;2023-04-23T01:15:01;100966.66;;;8.61;100.00
36726;BME280;44936;52.086;5.150;2023-04-23T01:17:26;100958.84;;;8.64;100.00
36726;BME280;44936;52.086;5.150;2023-04-23T01:19:52;100962.38;;;8.66;100.00
36726;BME280;44936;52.086;5.150;2023-04-23T01:22:17;100961.47;;;8.65;100.00
36726;BME280;44936;52.086;5.150;2023-04-23T01:24:42;100957.19;;;8.70;100.00
36726;BME280;44936;52.086;5.150;2023-04-23T01:27:09;100955.41;;;8.68;100.00
36726;BME280;44936;52.086;5.150;2023-04-23T01:29:34;100963.31;;;8.74;100.00
36726;BME280;44936;52.086;5.150;2023-04-23T01:32:01;100946.63;;;8.61;100.00
36726;BME280;44936;52.086;5.150;2023-04-23T01:34:29;100958.03;;;8.66;100.00
36726;BME280;44936;52.086;5.150;2023-04-23T01:36:55;100961.44;;;8.62;100.00
36726;BME280;44936;52.086;5.150;2023-04-23T01:39:21;100957.09;;;8.63;100.00
36726;BME280;44936;52.086;5.150;2023-04-23T01:41:47;100971.09;;;8.68;100.00
36726;BME280;44936;52.086;5.150;2023-04-23T01:44:13;100960.59;;;8.65;100.00
36726;BME280;44936;52.086;5.150;2023-04-23T01:46:38;100960.66;;;8.69;100.00
36726;BME280;44936;52.086;5.150;2023-04-23T01:49:04;100953.69;;;8.68;100.00
36726;BME280;44936;52.086;5.150;2023-04-23T01:51:29;100971.22;;;8.75;100.00
36726;BME280;44936;52.086;5.150;2023-04-23T01:53:56;100974.75;;;8.80;100.00
36726;BME280;44936;52.086;5.150;2023-04-23T01:56:26;100965.16;;;8.81;100.00
36726;BME280;44936;52.086;5.150;2023-04-23T01:58:52;100968.66;;;8.82;100.00
36726;BME280;44936;52.086;5.150;2023-04-23T02:01:17;100954.69;;;8.83;100.00
36726;BME280;44936;52.086;5.150;2023-04-23T02:03:43;100952.97;;;8.83;100.00
36726;BME280;44936;52.086;5.150;2023-04-23T02:06:09;100921.34;;;8.63;100.00
36726;BME280;44936;52.086;5.150;2023-04-23T02:08:35;100962.66;;;8.92;100.00
36726;BME280;44936;52.086;5.150;2023-04-23T02:11:01;100967.09;;;8.99;100.00
36726;BME280;44936;52.086;5.150;2023-04-23T02:13:26;100944.34;;;8.90;100.00
36726;BME280;44936;52.086;5.150;2023-04-23T02:15:52;100910.94;;;8.66;100.00
36726;BME280;44936;52.086;5.150;2023-04-23T02:18:17;100959.22;;;8.94;100.00
36726;BME280;44936;52.086;5.150;2023-04-23T02:20:42;100968.75;;;8.91;100.00
36726;BME280;44936;52.086;5.150;2023-04-23T02:23:08;100961.56;;;8.74;100.00
36726;BME280;44936;52.086;5.150;2023-04-23T02:25:35;100965.22;;;8.86;100.00
36726;BME280;44936;52.086;5.150;2023-04-23T02:28:02;100971.25;;;8.78;100.00
36726;BME280;44936;52.086;5.150;2023-04-23T02:30:31;101002.84;;;8.97;100.00
36726;BME280;44936;52.086;5.150;2023-04-23T02:32:56;100993.25;;;8.96;100.00
36726;BME280;44936;52.086;5.150;2023-04-23T02:35:21;100995.84;;;8.93;100.00
36726;BME280;44936;52.086;5.150;2023-04-23T02:37:48;100994.91;;;8.91;100.00
36726;BME280;44936;52.086;5.150;2023-04-23T02:40:13;100999.28;;;8.90;100.00
36726;BME280;44936;52.086;5.150;2023-04-23T02:42:39;100990.41;;;8.77;100.00
36726;BME280;44936;52.086;5.150;2023-04-23T02:45:04;101016.75;;;8.93;100.00
36726;BME280;44936;52.086;5.150;2023-04-23T02:47:31;100999.16;;;8.83;100.00
36726;BME280;44936;52.086;5.150;2023-04-23T02:49:56;101012.19;;;8.76;100.00
36726;BME280;44936;52.086;5.150;2023-04-23T02:52:22;101038.53;;;8.92;100.00
36726;BME280;44936;52.086;5.150;2023-04-23T02:54:47;101023.56;;;8.80;100.00
36726;BME280;44936;52.086;5.150;2023-04-23T02:57:13;101041.00;;;8.79;100.00
36726;BME280;44936;52.086;5.150;2023-04-23T02:59:40;101064.63;;;8.87;100.00
36726;BME280;44936;52.086;5.150;2023-04-23T03:02:06;101080.44;;;8.95;100.00
36726;BME280;44936;52.086;5.150;2023-04-23T03:04:31;101076.88;;;8.90;100.00
36726;BME280;44936;52.086;5.150;2023-04-23T03:06:57;101085.56;;;8.89;100.00
36726;BME280;44936;52.086;5.150;2023-04-23T03:09:22;101094.31;;;8.91;100.00
36726;BME280;44936;52.086;5.150;2023-04-23T03:11:48;101095.19;;;8.90;100.00
36726;BME280;44936;52.086;5.150;2023-04-23T03:14:13;101103.09;;;8.93;100.00
36726;BME280;44936;52.086;5.150;2023-04-23T03:16:38;101106.59;;;8.93;100.00
36726;BME280;44936;52.086;5.150;2023-04-23T03:19:04;101110.84;;;8.88;100.00
36726;BME280;44936;52.086;5.150;2023-04-23T03:21:29;101110.88;;;8.91;100.00
36726;BME280;44936;52.086;5.150;2023-04-23T03:23:54;101104.72;;;8.85;100.00
36726;BME280;44936;52.086;5.150;2023-04-23T03:26:20;101113.56;;;8.93;100.00
36726;BME280;44936;52.086;5.150;2023-04-23T03:28:45;101113.47;;;8.87;100.00
36726;BME280;44936;52.086;5.150;2023-04-23T03:31:11;101115.06;;;8.78;100.00
36726;BME280;44936;52.086;5.150;2023-04-23T03:33:36;101113.22;;;8.71;100.00
36726;BME280;44936;52.086;5.150;2023-04-23T03:36:01;101107.13;;;8.72;100.00
36726;BME280;44936;52.086;5.150;2023-04-23T03:38:27;101104.31;;;8.59;100.00
36726;BME280;44936;52.086;5.150;2023-04-23T03:40:52;101108.72;;;8.61;100.00
36726;BME280;44936;52.086;5.150;2023-04-23T03:43:17;101106.13;;;8.63;100.00
36726;BME280;44936;52.086;5.150;2023-04-23T03:45:43;101125.31;;;8.63;100.00
36726;BME280;44936;52.086;5.150;2023-04-23T03:48:09;101115.72;;;8.64;100.00
36726;BME280;44936;52.086;5.150;2023-04-23T03:50:34;101108.81;;;8.67;100.00
36726;BME280;44936;52.086;5.150;2023-04-23T03:53:03;101095.66;;;8.61;100.00
36726;BME280;44936;52.086;5.150;2023-04-23T03:55:29;101092.00;;;8.50;100.00
36726;BME280;44936;52.086;5.150;2023-04-23T03:57:54;101091.13;;;8.49;100.00
36726;BME280;44936;52.086;5.150;2023-04-23T04:00:20;101096.50;;;8.60;100.00
36726;BME280;44936;52.086;5.150;2023-04-23T04:02:45;101098.28;;;8.64;100.00
36726;BME280;44936;52.086;5.150;2023-04-23T04:05:11;101079.84;;;8.55;100.00
36726;BME280;44936;52.086;5.150;2023-04-23T04:07:36;101083.31;;;8.52;100.00
36726;BME280;44936;52.086;5.150;2023-04-23T04:10:02;101094.66;;;8.55;100.00
36726;BME280;44936;52.086;5.150;2023-04-23T04:12:29;101085.94;;;8.54;100.00
36726;BME280;44936;52.086;5.150;2023-04-23T04:14:54;101078.09;;;8.54;100.00
36726;BME280;44936;52.086;5.150;2023-04-23T04:17:20;101087.69;;;8.55;100.00
36726;BME280;44936;52.086;5.150;2023-04-23T04:19:45;101089.53;;;8.61;100.00
36726;BME280;44936;52.086;5.150;2023-04-23T04:22:11;101078.22;;;8.63;100.00
36726;BME280;44936;52.086;5.150;2023-04-23T04:24:36;101082.59;;;8.64;100.00
36726;BME280;44936;52.086;5.150;2023-04-23T04:27:02;101076.47;;;8.61;100.00
36726;BME280;44936;52.086;5.150;2023-04-23T04:29:27;101086.97;;;8.65;100.00
36726;BME280;44936;52.086;5.150;2023-04-23T04:31:53;101095.75;;;8.67;100.00
36726;BME280;44936;52.086;5.150;2023-04-23T04:34:19;101087.91;;;8.69;100.00
36726;BME280;44936;52.086;5.150;2023-04-23T04:36:45;101087.91;;;8.69;100.00
36726;BME280;44936;52.086;5.150;2023-04-23T04:39:12;101069.31;;;8.49;100.00
36726;BME280;44936;52.086;5.150;2023-04-23T04:41:39;101094.81;;;8.65;100.00
36726;BME280;44936;52.086;5.150;2023-04-23T04:44:05;101099.09;;;8.57;100.00
36726;BME280;44936;52.086;5.150;2023-04-23T04:46:32;101097.38;;;8.59;100.00
36726;BME280;44936;52.086;5.150;2023-04-23T04:48:59;101091.16;;;8.52;100.00
36726;BME280;44936;52.086;5.150;2023-04-23T04:51:24;101096.41;;;8.54;100.00
36726;BME280;44936;52.086;5.150;2023-04-23T04:53:51;101099.84;;;8.50;100.00
36726;BME280;44936;52.086;5.150;2023-04-23T04:56:16;101103.31;;;8.49;100.00
36726;BME280;44936;52.086;5.150;2023-04-23T04:58:42;101105.94;;;8.49;100.00
36726;BME280;44936;52.086;5.150;2023-04-23T05:01:07;101093.66;;;8.45;100.00
36726;BME280;44936;52.086;5.150;2023-04-23T05:03:33;101107.69;;;8.50;100.00
36726;BME280;44936;52.086;5.150;2023-04-23T05:05:59;101082.16;;;8.35;100.00
36726;BME280;44936;52.086;5.150;2023-04-23T05:08:25;101084.88;;;8.40;100.00
36726;BME280;44936;52.086;5.150;2023-04-23T05:10:50;101103.34;;;8.52;100.00
36726;BME280;44936;52.086;5.150;2023-04-23T05:13:16;101093.69;;;8.48;100.00
36726;BME280;44936;52.086;5.150;2023-04-23T05:15:42;101102.50;;;8.53;100.00
36726;BME280;44936;52.086;5.150;2023-04-23T05:18:09;101100.84;;;8.58;100.00
36726;BME280;44936;52.086;5.150;2023-04-23T05:20:35;101077.94;;;8.42;100.00
36726;BME280;44936;52.086;5.150;2023-04-23T05:23:00;101085.88;;;8.49;100.00
36726;BME280;44936;52.086;5.150;2023-04-23T05:25:28;101081.53;;;8.48;100.00
36726;BME280;44936;52.086;5.150;2023-04-23T05:27:53;101100.75;;;8.54;100.00
36726;BME280;44936;52.086;5.150;2023-04-23T05:30:19;101111.25;;;8.57;100.00
36726;BME280;44936;52.086;5.150;2023-04-23T05:32:44;101113.84;;;8.57;100.00
36726;BME280;44936;52.086;5.150;2023-04-23T05:35:10;101121.66;;;8.54;100.00
36726;BME280;44936;52.086;5.150;2023-04-23T05:37:35;101128.75;;;8.59;100.00
36726;BME280;44936;52.086;5.150;2023-04-23T05:40:01;101125.19;;;8.56;100.00
36726;BME280;44936;52.086;5.150;2023-04-23T05:42:27;101130.53;;;8.63;100.00
36726;BME280;44936;52.086;5.150;2023-04-23T05:44:52;101135.88;;;8.69;100.00
36726;BME280;44936;52.086;5.150;2023-04-23T05:47:17;101135.03;;;8.73;100.00
36726;BME280;44936;52.086;5.150;2023-04-23T05:49:42;101124.41;;;8.63;100.00
36726;BME280;44936;52.086;5.150;2023-04-23T05:52:08;101126.28;;;8.71;100.00
36726;BME280;44936;52.086;5.150;2023-04-23T05:54:33;101146.47;;;8.78;100.00
36726;BME280;44936;52.086;5.150;2023-04-23T05:56:58;101137.75;;;8.78;100.00
36726;BME280;44936;52.086;5.150;2023-04-23T05:59:24;101146.50;;;8.82;100.00
36726;BME280;44936;52.086;5.150;2023-04-23T06:01:50;101144.81;;;8.84;100.00
36726;BME280;44936;52.086;5.150;2023-04-23T06:04:15;101145.72;;;8.87;100.00
36726;BME280;44936;52.086;5.150;2023-04-23T06:06:44;101134.19;;;8.74;100.00
36726;BME280;44936;52.086;5.150;2023-04-23T06:09:09;101137.00;;;8.87;100.00
36726;BME280;44936;52.086;5.150;2023-04-23T06:11:35;101152.72;;;8.90;100.00
36726;BME280;44936;52.086;5.150;2023-04-23T06:14:02;101150.09;;;8.90;100.00
36726;BME280;44936;52.086;5.150;2023-04-23T06:16:27;101153.66;;;8.93;100.00
36726;BME280;44936;52.086;5.150;2023-04-23T06:18:52;101156.19;;;8.89;100.00
36726;BME280;44936;52.086;5.150;2023-04-23T06:21:20;101156.31;;;8.95;100.00
36726;BME280;44936;52.086;5.150;2023-04-23T06:23:46;101167.78;;;9.06;100.00
36726;BME280;44936;52.086;5.150;2023-04-23T06:26:11;101157.16;;;8.94;100.00
36726;BME280;44936;52.086;5.150;2023-04-23T06:28:36;101158.97;;;9.01;100.00
36726;BME280;44936;52.086;5.150;2023-04-23T06:31:03;101165.19;;;9.07;100.00
36726;BME280;44936;52.086;5.150;2023-04-23T06:33:29;101174.78;;;9.07;100.00
36726;BME280;44936;52.086;5.150;2023-04-23T06:35:55;101174.88;;;9.13;100.00
36726;BME280;44936;52.086;5.150;2023-04-23T06:38:20;101170.50;;;9.12;100.00
36726;BME280;44936;52.086;5.150;2023-04-23T06:40:47;101161.78;;;9.12;100.00
36726;BME280;44936;52.086;5.150;2023-04-23T06:43:12;101175.88;;;9.23;100.00
36726;BME280;44936;52.086;5.150;2023-04-23T06:45:38;101179.47;;;9.28;100.00
36726;BME280;44936;52.086;5.150;2023-04-23T06:48:04;101164.56;;;9.25;100.00
36726;BME280;44936;52.086;5.150;2023-04-23T06:50:29;101170.75;;;9.29;100.00
36726;BME280;44936;52.086;5.150;2023-04-23T06:52:55;101164.72;;;9.36;100.00
36726;BME280;44936;52.086;5.150;2023-04-23T06:55:20;101148.06;;;9.29;100.00
36726;BME280;44936;52.086;5.150;2023-04-23T06:57:50;101163.88;;;9.37;100.00
36726;BME280;44936;52.086;5.150;2023-04-23T07:00:15;101154.31;;;9.42;100.00
36726;BME280;44936;52.086;5.150;2023-04-23T07:02:41;101169.25;;;9.48;100.00
36726;BME280;44936;52.086;5.150;2023-04-23T07:05:06;101162.19;;;9.45;100.00
36726;BME280;44936;52.086;5.150;2023-04-23T07:07:32;101178.88;;;9.52;100.00
36726;BME280;44936;52.086;5.150;2023-04-23T07:10:01;101182.44;;;9.57;100.00
36726;BME280;44936;52.086;5.150;2023-04-23T07:12:26;101174.69;;;9.66;100.00
36726;BME280;44936;52.086;5.150;2023-04-23T07:14:51;101168.72;;;9.78;100.00
36726;BME280;44936;52.086;5.150;2023-04-23T07:17:18;101165.22;;;9.77;100.00
36726;BME280;44936;52.086;5.150;2023-04-23T07:19:43;101171.41;;;9.81;100.00
36726;BME280;44936;52.086;5.150;2023-04-23T07:22:09;101165.31;;;9.86;100.00
36726;BME280;44936;52.086;5.150;2023-04-23T07:24:34;101168.91;;;9.94;100.00
36726;BME280;44936;52.086;5.150;2023-04-23T07:26:59;101168.13;;;10.05;100.00
36726;BME280;44936;52.086;5.150;2023-04-23T07:29:25;101166.44;;;10.08;100.00
36726;BME280;44936;52.086;5.150;2023-04-23T07:31:50;101164.78;;;10.18;100.00
36726;BME280;44936;52.086;5.150;2023-04-23T07:34:15;101171.78;;;10.20;100.00
36726;BME280;44936;52.086;5.150;2023-04-23T07:36:41;101168.31;;;10.21;100.00
36726;BME280;44936;52.086;5.150;2023-04-23T07:39:06;101169.28;;;10.30;100.00
36726;BME280;44936;52.086;5.150;2023-04-23T07:41:31;101170.09;;;10.24;100.00
36726;BME280;44936;52.086;5.150;2023-04-23T07:43:57;101170.16;;;10.27;100.00
36726;BME280;44936;52.086;5.150;2023-04-23T07:46:22;101166.69;;;10.33;100.00
36726;BME280;44936;52.086;5.150;2023-04-23T07:48:48;101175.50;;;10.39;100.00
36726;BME280;44936;52.086;5.150;2023-04-23T07:51:13;101174.63;;;10.42;100.00
36726;BME280;44936;52.086;5.150;2023-04-23T07:53:38;101173.75;;;10.41;100.00
36726;BME280;44936;52.086;5.150;2023-04-23T07:56:04;101186.06;;;10.45;100.00
36726;BME280;44936;52.086;5.150;2023-04-23T07:58:29;101184.38;;;10.52;100.00
36726;BME280;44936;52.086;5.150;2023-04-23T08:00:57;101188.75;;;10.55;100.00
36726;BME280;44936;52.086;5.150;2023-04-23T08:03:22;101178.28;;;10.56;100.00
36726;BME280;44936;52.086;5.150;2023-04-23T08:05:48;101171.34;;;10.61;100.00
36726;BME280;44936;52.086;5.150;2023-04-23T08:08:13;101173.97;;;10.61;100.00
36726;BME280;44936;52.086;5.150;2023-04-23T08:10:39;101172.25;;;10.68;100.00
36726;BME280;44936;52.086;5.150;2023-04-23T08:13:04;101171.44;;;10.75;100.00
36726;BME280;44936;52.086;5.150;2023-04-23T08:15:29;101169.72;;;10.78;100.00
36726;BME280;44936;52.086;5.150;2023-04-23T08:17:55;101169.75;;;10.85;100.00
36726;BME280;44936;52.086;5.150;2023-04-23T08:20:20;101163.66;;;10.87;100.00
36726;BME280;44936;52.086;5.150;2023-04-23T08:22:45;101161.06;;;10.92;100.00
36726;BME280;44936;52.086;5.150;2023-04-23T08:25:11;101154.97;;;10.99;100.00
36726;BME280;44936;52.086;5.150;2023-04-23T08:27:39;101149.69;;;10.94;100.00
36726;BME280;44936;52.086;5.150;2023-04-23T08:30:05;101150.66;;;11.05;100.00
36726;BME280;44936;52.086;5.150;2023-04-23T08:32:31;101148.00;;;11.01;100.00
36726;BME280;44936;52.086;5.150;2023-04-23T08:34:56;101154.16;;;11.07;100.00
36726;BME280;44936;52.086;5.150;2023-04-23T08:37:23;101155.97;;;11.18;100.00
36726;BME280;44936;52.086;5.150;2023-04-23T08:39:48;101150.72;;;11.16;100.00
36726;BME280;44936;52.086;5.150;2023-04-23T08:42:19;101151.63;;;11.23;100.00
36726;BME280;44936;52.086;5.150;2023-04-23T08:44:46;101145.50;;;11.30;100.00
36726;BME280;44936;52.086;5.150;2023-04-23T08:47:16;101143.78;;;11.35;100.00
36726;BME280;44936;52.086;5.150;2023-04-23T08:49:44;101145.56;;;11.36;100.00
36726;BME280;44936;52.086;5.150;2023-04-23T08:52:22;101149.09;;;11.44;100.00
36726;BME280;44936;52.086;5.150;2023-04-23T08:54:49;101150.88;;;11.53;100.00
36726;BME280;44936;52.086;5.150;2023-04-23T08:57:16;101132.50;;;11.54;100.00
36726;BME280;44936;52.086;5.150;2023-04-23T08:59:42;101140.44;;;11.67;100.00
36726;BME280;44936;52.086;5.150;2023-04-23T09:02:08;101134.31;;;11.68;100.00
36726;BME280;44936;52.086;5.150;2023-04-23T09:04:35;101139.63;;;11.83;100.00
36726;BME280;44936;52.086;5.150;2023-04-23T09:07:01;101127.38;;;12.00;100.00
36726;BME280;44936;52.086;5.150;2023-04-23T09:09:28;101133.56;;;12.21;100.00
36726;BME280;44936;52.086;5.150;2023-04-23T09:11:57;101123.94;;;12.23;100.00
36726;BME280;44936;52.086;5.150;2023-04-23T09:14:23;101141.44;;;12.54;100.00
36726;BME280;44936;52.086;5.150;2023-04-23T09:16:52;101125.66;;;12.43;100.00
36726;BME280;44936;52.086;5.150;2023-04-23T09:19:18;101126.56;;;12.48;100.00
36726;BME280;44936;52.086;5.150;2023-04-23T09:21:45;101147.59;;;12.62;100.00
36726;BME280;44936;52.086;5.150;2023-04-23T09:24:20;101147.63;;;12.56;100.00
36726;BME280;44936;52.086;5.150;2023-04-23T09:26:47;101124.78;;;12.61;100.00
36726;BME280;44936;52.086;5.150;2023-04-23T09:29:15;101130.94;;;12.74;100.00
36726;BME280;44936;52.086;5.150;2023-04-23T09:31:46;101121.25;;;12.79;100.00
36726;BME280;44936;52.086;5.150;2023-04-23T09:34:14;101149.28;;;13.04;100.00
36726;BME280;44936;52.086;5.150;2023-04-23T09:36:41;101123.88;;;12.99;100.00
36726;BME280;44936;52.086;5.150;2023-04-23T09:39:14;101110.72;;;12.77;100.00
36726;BME280;44936;52.086;5.150;2023-04-23T09:41:41;101147.56;;;13.02;100.00
36726;BME280;44936;52.086;5.150;2023-04-23T09:44:07;101137.91;;;13.02;100.00
36726;BME280;44936;52.086;5.150;2023-04-23T09:46:38;101143.13;;;13.24;100.00
36726;BME280;44936;52.086;5.150;2023-04-23T09:49:05;101138.72;;;13.29;100.00
36726;BME280;44936;52.086;5.150;2023-04-23T09:51:36;101126.44;;;13.28;100.00
36726;BME280;44936;52.086;5.150;2023-04-23T09:54:01;101123.72;;;13.49;100.00
36726;BME280;44936;52.086;5.150;2023-04-23T09:56:30;101114.09;;;13.45;100.00
36726;BME280;44936;52.086;5.150;2023-04-23T09:58:56;101116.66;;;13.57;100.00
36726;BME280;44936;52.086;5.150;2023-04-23T10:01:29;101128.06;;;13.58;100.00
36726;BME280;44936;52.086;5.150;2023-04-23T10:03:55;101102.63;;;13.52;100.00
36726;BME280;44936;52.086;5.150;2023-04-23T10:06:28;101108.69;;;13.71;100.00
36726;BME280;44936;52.086;5.150;2023-04-23T10:08:57;101106.84;;;13.82;100.00
36726;BME280;44936;52.086;5.150;2023-04-23T10:11:23;101082.19;;;13.91;100.00
36726;BME280;44936;52.086;5.150;2023-04-23T10:13:49;101097.19;;;13.83;100.00
36726;BME280;44936;52.086;5.150;2023-04-23T10:16:15;101079.59;;;13.88;100.00
36726;BME280;44936;52.086;5.150;2023-04-23T10:18:41;101087.38;;;14.05;100.00
36726;BME280;44936;52.086;5.150;2023-04-23T10:21:07;101087.31;;;14.14;100.00
36726;BME280;44936;52.086;5.150;2023-04-23T10:23:35;101090.78;;;14.19;100.00
36726;BME280;44936;52.086;5.150;2023-04-23T10:26:03;101079.25;;;14.29;100.00
36726;BME280;44936;52.086;5.150;2023-04-23T10:28:32;101065.94;;;14.44;100.00
36726;BME280;44936;52.086;5.150;2023-04-23T10:30:58;101063.19;;;14.57;100.00
36726;BME280;44936;52.086;5.150;2023-04-23T10:33:25;101064.81;;;14.71;100.00
36726;BME280;44936;52.086;5.150;2023-04-23T10:35:51;101056.75;;;14.84;100.00
36726;BME280;44936;52.086;5.150;2023-04-23T10:38:19;101061.06;;;14.94;100.00
36726;BME280;44936;52.086;5.150;2023-04-23T10:40:48;101037.16;;;15.05;100.00
36726;BME280;44936;52.086;5.150;2023-04-23T10:43:15;101049.47;;;15.06;100.00
36726;BME280;44936;52.086;5.150;2023-04-23T10:45:42;101054.84;;;14.96;100.00
36726;BME280;44936;52.086;5.150;2023-04-23T10:48:07;101040.69;;;15.04;100.00
36726;BME280;44936;52.086;5.150;2023-04-23T10:50:36;101023.03;;;15.07;100.00
36726;BME280;44936;52.086;5.150;2023-04-23T10:53:02;101041.13;;;15.36;100.00
36726;BME280;44936;52.086;5.150;2023-04-23T10:55:29;101036.66;;;15.41;100.00
36726;BME280;44936;52.086;5.150;2023-04-23T10:58:02;101008.88;;;15.13;100.00
36726;BME280;44936;52.086;5.150;2023-04-23T11:00:29;101027.94;;;15.35;100.00
36726;BME280;44936;52.086;5.150;2023-04-23T11:02:54;101010.84;;;15.60;100.00
36726;BME280;44936;52.086;5.150;2023-04-23T11:05:22;101030.31;;;15.54;100.00
36726;BME280;44936;52.086;5.150;2023-04-23T11:08:06;101030.06;;;15.74;100.00
36726;BME280;44936;52.086;5.150;2023-04-23T11:10:32;101023.19;;;15.61;100.00
36726;BME280;44936;52.086;5.150;2023-04-23T11:13:27;101013.91;;;15.93;100.00
36726;BME280;44936;52.086;5.150;2023-04-23T11:16:19;101015.97;;;15.74;100.00
36726;BME280;44936;52.086;5.150;2023-04-23T11:18:59;101002.63;;;15.80;100.00
36726;BME280;44936;52.086;5.150;2023-04-23T11:24:26;101000.72;;;15.88;100.00
36726;BME280;44936;52.086;5.150;2023-04-23T11:26:51;100988.47;;;16.33;100.00
36726;BME280;44936;52.086;5.150;2023-04-23T11:29:22;100986.59;;;16.40;100.00
36726;BME280;44936;52.086;5.150;2023-04-23T11:31:48;100966.56;;;16.27;100.00
36726;BME280;44936;52.086;5.150;2023-04-23T11:34:14;100954.50;;;16.10;100.00
36726;BME280;44936;52.086;5.150;2023-04-23T11:36:41;100965.09;;;16.10;100.00
36726;BME280;44936;52.086;5.150;2023-04-23T11:39:06;100979.91;;;16.21;100.00
36726;BME280;44936;52.086;5.150;2023-04-23T11:41:35;100957.72;;;16.28;100.00
36726;BME280;44936;52.086;5.150;2023-04-23T11:44:00;100917.53;;;16.06;100.00
36726;BME280;44936;52.086;5.150;2023-04-23T11:46:26;100946.53;;;16.12;100.00
36726;BME280;44936;52.086;5.150;2023-04-23T11:48:51;100939.69;;;16.02;100.00
36726;BME280;44936;52.086;5.150;2023-04-23T11:51:17;100936.94;;;16.08;100.00
36726;BME280;44936;52.086;5.150;2023-04-23T11:53:46;100934.84;;;16.24;100.00
36726;BME280;44936;52.086;5.150;2023-04-23T11:56:15;100944.56;;;16.23;100.00
36726;BME280;44936;52.086;5.150;2023-04-23T11:58:40;100921.06;;;16.06;100.00
36726;BME280;44936;52.086;5.150;2023-04-23T12:01:06;100931.66;;;16.05;100.00
36726;BME280;44936;52.086;5.150;2023-04-23T12:03:32;100944.69;;;16.15;100.00
36726;BME280;44936;52.086;5.150;2023-04-23T12:05:57;100932.34;;;16.18;100.00
36726;BME280;44936;52.086;5.150;2023-04-23T12:08:23;100938.72;;;16.51;100.00
36726;BME280;44936;52.086;5.150;2023-04-23T12:13:22;100927.22;;;16.53;100.00
36726;BME280;44936;52.086;5.150;2023-04-23T12:15:49;100932.28;;;16.65;100.00
36726;BME280;44936;52.086;5.150;2023-04-23T12:18:16;100904.28;;;16.54;100.00
36726;BME280;44936;52.086;5.150;2023-04-23T12:20:42;100941.94;;;16.66;100.00
36726;BME280;44936;52.086;5.150;2023-04-23T12:23:08;100942.22;;;16.54;100.00
36726;BME280;44936;52.086;5.150;2023-04-23T12:25:34;100944.66;;;16.63;100.00
36726;BME280;44936;52.086;5.150;2023-04-23T12:28:03;100941.13;;;16.64;100.00
36726;BME280;44936;52.086;5.150;2023-04-23T12:30:32;100926.50;;;16.90;100.00
36726;BME280;44936;52.086;5.150;2023-04-23T12:32:59;100908.53;;;16.61;100.00
36726;BME280;44936;52.086;5.150;2023-04-23T12:35:40;100924.78;;;16.86;100.00
36726;BME280;44936;52.086;5.150;2023-04-23T12:38:05;100919.47;;;16.89;100.00
36726;BME280;44936;52.086;5.150;2023-04-23T12:40:31;100913.47;;;16.79;100.00
36726;BME280;44936;52.086;5.150;2023-04-23T12:42:57;100927.03;;;17.04;100.00
36726;BME280;44936;52.086;5.150;2023-04-23T12:45:22;100929.19;;;16.88;100.00
36726;BME280;44936;52.086;5.150;2023-04-23T12:47:47;100919.66;;;16.80;100.00